sensor_id;sensor_type;location;lat;lon;timestamp;pressure;altitude;pressure_sealevel;temperature;humidity
39357;BME280;25077;50.302;18.996;2022-09-21T00:02:38;98493.38;;;7.70;78.47
39357;BME280;25077;50.302;18.996;2022-09-21T00:05:41;98493.59;;;7.65;78.83
39357;BME280;25077;50.302;18.996;2022-09-21T00:08:44;98496.50;;;7.60;78.03
39357;BME280;25077;50.302;18.996;2022-09-21T00:11:46;98495.25;;;7.57;77.11
39357;BME280;25077;50.302;18.996;2022-09-21T00:14:48;98492.44;;;7.54;77.34
39357;BME280;25077;50.302;18.996;2022-09-21T00:17:53;98502.31;;;7.50;77.77
39357;BME280;25077;50.302;18.996;2022-09-21T00:20:55;98487.47;;;7.44;78.25
39357;BME280;25077;50.302;18.996;2022-09-21T00:23:57;98492.88;;;7.44;78.59
39357;BME280;25077;50.302;18.996;2022-09-21T00:27:00;98496.66;;;7.43;78.85
39357;BME280;25077;50.302;18.996;2022-09-21T00:30:04;98503.38;;;7.37;78.88
39357;BME280;25077;50.302;18.996;2022-09-21T00:33:07;98499.44;;;7.34;78.35
39357;BME280;25077;50.302;18.996;2022-09-21T00:36:11;98492.00;;;7.31;78.25
39357;BME280;25077;50.302;18.996;2022-09-21T00:39:13;98497.59;;;7.26;78.40
39357;BME280;25077;50.302;18.996;2022-09-21T00:42:17;98508.72;;;7.24;79.14
39357;BME280;25077;50.302;18.996;2022-09-21T00:45:20;98500.63;;;7.24;78.47
39357;BME280;25077;50.302;18.996;2022-09-21T00:48:23;98503.31;;;7.24;78.75
39357;BME280;25077;50.302;18.996;2022-09-21T00:51:25;98506.81;;;7.25;79.30
39357;BME280;25077;50.302;18.996;2022-09-21T00:54:30;98503.13;;;7.29;78.82
39357;BME280;25077;50.302;18.996;2022-09-21T00:57:33;98508.97;;;7.31;79.12
39357;BME280;25077;50.302;18.996;2022-09-21T01:00:37;98505.63;;;7.35;79.42
39357;BME280;25077;50.302;18.996;2022-09-21T01:03:41;98512.59;;;7.36;79.00
39357;BME280;25077;50.302;18.996;2022-09-21T01:06:45;98509.88;;;7.36;81.08
39357;BME280;25077;50.302;18.996;2022-09-21T01:09:51;98516.84;;;7.37;79.50
39357;BME280;25077;50.302;18.996;2022-09-21T01:13:05;98513.06;;;7.38;80.54
39357;BME280;25077;50.302;18.996;2022-09-21T01:16:14;98514.44;;;7.44;79.44
39357;BME280;25077;50.302;18.996;2022-09-21T01:19:37;98518.78;;;7.48;79.29
39357;BME280;25077;50.302;18.996;2022-09-21T01:22:57;98516.88;;;7.49;80.01
39357;BME280;25077;50.302;18.996;2022-09-21T01:26:09;98516.88;;;7.49;80.02
39357;BME280;25077;50.302;18.996;2022-09-21T01:29:19;98517.38;;;7.51;79.12
39357;BME280;25077;50.302;18.996;2022-09-21T01:32:27;98519.59;;;7.49;79.82
39357;BME280;25077;50.302;18.996;2022-09-21T01:35:34;98516.09;;;7.48;80.00
39357;BME280;25077;50.302;18.996;2022-09-21T01:38:41;98525.44;;;7.51;79.27
39357;BME280;25077;50.302;18.996;2022-09-21T01:41:45;98515.91;;;7.53;78.98
39357;BME280;25077;50.302;18.996;2022-09-21T01:44:52;98519.84;;;7.56;78.79
39357;BME280;25077;50.302;18.996;2022-09-21T01:47:59;98515.59;;;7.55;78.94
39357;BME280;25077;50.302;18.996;2022-09-21T01:51:03;98521.09;;;7.58;78.64
39357;BME280;25077;50.302;18.996;2022-09-21T01:54:10;98530.44;;;7.61;79.11
39357;BME280;25077;50.302;18.996;2022-09-21T01:57:18;98534.22;;;7.60;79.21
39357;BME280;25077;50.302;18.996;2022-09-21T02:00:23;98531.88;;;7.58;79.70
39357;BME280;25077;50.302;18.996;2022-09-21T02:03:28;98535.34;;;7.59;79.15
39357;BME280;25077;50.302;18.996;2022-09-21T02:06:31;98529.31;;;7.62;78.93
39357;BME280;25077;50.302;18.996;2022-09-21T02:09:34;98535.03;;;7.61;80.22
39357;BME280;25077;50.302;18.996;2022-09-21T02:12:37;98531.22;;;7.62;79.07
39357;BME280;25077;50.302;18.996;2022-09-21T02:15:52;98541.53;;;7.59;79.61
39357;BME280;25077;50.302;18.996;2022-09-21T02:19:08;98538.53;;;7.61;79.15
39357;BME280;25077;50.302;18.996;2022-09-21T02:22:16;98542.31;;;7.60;79.78
39357;BME280;25077;50.302;18.996;2022-09-21T02:25:30;98535.94;;;7.65;79.20
39357;BME280;25077;50.302;18.996;2022-09-21T02:28:40;98536.50;;;7.70;78.98
39357;BME280;25077;50.302;18.996;2022-09-21T02:31:50;98534.59;;;7.71;78.52
39357;BME280;25077;50.302;18.996;2022-09-21T02:34:58;98532.59;;;7.68;78.84
39357;BME280;25077;50.302;18.996;2022-09-21T02:38:08;98542.59;;;7.67;78.54
39357;BME280;25077;50.302;18.996;2022-09-21T02:41:15;98542.09;;;7.65;78.52
39357;BME280;25077;50.302;18.996;2022-09-21T02:44:21;98544.50;;;7.67;79.24
39357;BME280;25077;50.302;18.996;2022-09-21T02:47:28;98549.53;;;7.68;78.34
39357;BME280;25077;50.302;18.996;2022-09-21T02:50:35;98547.78;;;7.72;78.70
39357;BME280;25077;50.302;18.996;2022-09-21T02:53:40;98550.47;;;7.72;78.56
39357;BME280;25077;50.302;18.996;2022-09-21T02:56:44;98550.25;;;7.77;78.36
39357;BME280;25077;50.302;18.996;2022-09-21T02:59:47;98562.72;;;7.82;77.74
39357;BME280;25077;50.302;18.996;2022-09-21T03:02:51;98572.72;;;7.81;77.53
39357;BME280;25077;50.302;18.996;2022-09-21T03:05:54;98559.78;;;7.75;77.94
39357;BME280;25077;50.302;18.996;2022-09-21T03:08:56;98576.28;;;7.73;77.96
39357;BME280;25077;50.302;18.996;2022-09-21T03:11:58;98574.44;;;7.65;78.65
39357;BME280;25077;50.302;18.996;2022-09-21T03:15:00;98571.50;;;7.58;78.32
39357;BME280;25077;50.302;18.996;2022-09-21T03:18:04;98573.28;;;7.54;78.71
39357;BME280;25077;50.302;18.996;2022-09-21T03:21:07;98580.59;;;7.53;78.95
39357;BME280;25077;50.302;18.996;2022-09-21T03:24:09;98585.31;;;7.56;78.41
39357;BME280;25077;50.302;18.996;2022-09-21T03:27:11;98584.06;;;7.54;78.47
39357;BME280;25077;50.302;18.996;2022-09-21T03:30:13;98586.06;;;7.45;79.18
39357;BME280;25077;50.302;18.996;2022-09-21T03:33:17;98599.72;;;7.40;79.50
39357;BME280;25077;50.302;18.996;2022-09-21T03:36:20;98597.56;;;7.33;79.27
39357;BME280;25077;50.302;18.996;2022-09-21T03:39:22;98603.25;;;7.31;79.49
39357;BME280;25077;50.302;18.996;2022-09-21T03:42:24;98603.00;;;7.24;79.63
39357;BME280;25077;50.302;18.996;2022-09-21T03:45:26;98603.00;;;7.24;79.37
39357;BME280;25077;50.302;18.996;2022-09-21T03:48:30;98602.06;;;7.20;79.84
39357;BME280;25077;50.302;18.996;2022-09-21T03:51:32;98608.13;;;7.17;80.10
39357;BME280;25077;50.302;18.996;2022-09-21T03:54:34;98603.38;;;7.14;80.44
39357;BME280;25077;50.302;18.996;2022-09-21T03:57:36;98603.56;;;7.09;81.61
39357;BME280;25077;50.302;18.996;2022-09-21T04:00:39;98607.38;;;7.08;81.22
39357;BME280;25077;50.302;18.996;2022-09-21T04:03:42;98606.25;;;7.09;80.94
39357;BME280;25077;50.302;18.996;2022-09-21T04:06:44;98599.91;;;7.14;80.83
39357;BME280;25077;50.302;18.996;2022-09-21T04:09:46;98601.28;;;7.20;80.11
39357;BME280;25077;50.302;18.996;2022-09-21T04:12:48;98605.25;;;7.22;80.30
39357;BME280;25077;50.302;18.996;2022-09-21T04:15:50;98604.47;;;7.22;80.75
39357;BME280;25077;50.302;18.996;2022-09-21T04:18:54;98597.50;;;7.21;81.84
39357;BME280;25077;50.302;18.996;2022-09-21T04:21:56;98608.72;;;7.23;80.90
39357;BME280;25077;50.302;18.996;2022-09-21T04:24:58;98605.69;;;7.24;81.04
39357;BME280;25077;50.302;18.996;2022-09-21T04:28:01;98610.75;;;7.26;80.72
39357;BME280;25077;50.302;18.996;2022-09-21T04:31:03;98603.78;;;7.25;81.13
39357;BME280;25077;50.302;18.996;2022-09-21T04:34:08;98611.09;;;7.24;81.49
39357;BME280;25077;50.302;18.996;2022-09-21T04:37:12;98611.56;;;7.26;81.85
39357;BME280;25077;50.302;18.996;2022-09-21T04:40:14;98615.50;;;7.29;81.15
39357;BME280;25077;50.302;18.996;2022-09-21T04:43:16;98618.97;;;7.29;81.77
39357;BME280;25077;50.302;18.996;2022-09-21T04:46:19;98613.25;;;7.31;81.45
39357;BME280;25077;50.302;18.996;2022-09-21T04:49:23;98621.66;;;7.29;81.65
39357;BME280;25077;50.302;18.996;2022-09-21T04:52:25;98615.63;;;7.32;81.04
39357;BME280;25077;50.302;18.996;2022-09-21T04:55:27;98628.00;;;7.33;80.95
39357;BME280;25077;50.302;18.996;2022-09-21T04:58:29;98618.78;;;7.35;80.67
39357;BME280;25077;50.302;18.996;2022-09-21T05:01:31;98623.53;;;7.38;80.97
39357;BME280;25077;50.302;18.996;2022-09-21T05:04:35;98619.56;;;7.35;80.90
39357;BME280;25077;50.302;18.996;2022-09-21T05:07:37;98625.75;;;7.36;81.68
39357;BME280;25077;50.302;18.996;2022-09-21T05:10:39;98631.63;;;7.38;81.18
39357;BME280;25077;50.302;18.996;2022-09-21T05:13:42;98631.13;;;7.36;81.37
39357;BME280;25077;50.302;18.996;2022-09-21T05:16:44;98644.16;;;7.33;81.63
39357;BME280;25077;50.302;18.996;2022-09-21T05:19:51;98641.66;;;7.28;82.74
39357;BME280;25077;50.302;18.996;2022-09-21T05:22:53;98637.84;;;7.29;81.91
39357;BME280;25077;50.302;18.996;2022-09-21T05:25:56;98646.09;;;7.24;82.20
39357;BME280;25077;50.302;18.996;2022-09-21T05:28:59;98657.56;;;7.21;82.78
39357;BME280;25077;50.302;18.996;2022-09-21T05:32:04;98648.00;;;7.24;82.26
39357;BME280;25077;50.302;18.996;2022-09-21T05:35:17;98647.03;;;7.28;82.37
39357;BME280;25077;50.302;18.996;2022-09-21T05:38:22;98648.09;;;7.36;81.73
39357;BME280;25077;50.302;18.996;2022-09-21T05:41:24;98647.13;;;7.41;81.79
39357;BME280;25077;50.302;18.996;2022-09-21T05:44:27;98652.34;;;7.37;82.60
39357;BME280;25077;50.302;18.996;2022-09-21T05:47:37;98653.34;;;7.32;83.33
39357;BME280;25077;50.302;18.996;2022-09-21T05:50:48;98662.34;;;7.37;82.92
39357;BME280;25077;50.302;18.996;2022-09-21T05:53:56;98654.41;;;7.40;83.08
39357;BME280;25077;50.302;18.996;2022-09-21T05:57:07;98662.03;;;7.38;82.83
39357;BME280;25077;50.302;18.996;2022-09-21T06:00:14;98666.16;;;7.36;83.48
39357;BME280;25077;50.302;18.996;2022-09-21T06:03:26;98667.09;;;7.40;82.41
39357;BME280;25077;50.302;18.996;2022-09-21T06:06:30;98669.78;;;7.40;82.95
39357;BME280;25077;50.302;18.996;2022-09-21T06:09:32;98673.59;;;7.39;82.95
39357;BME280;25077;50.302;18.996;2022-09-21T06:12:34;98666.13;;;7.44;82.81
39357;BME280;25077;50.302;18.996;2022-09-21T06:15:37;98674.50;;;7.43;83.63
39357;BME280;25077;50.302;18.996;2022-09-21T06:18:40;98664.84;;;7.42;83.11
39357;BME280;25077;50.302;18.996;2022-09-21T06:21:44;98669.25;;;7.46;83.72
39357;BME280;25077;50.302;18.996;2022-09-21T06:24:46;98661.97;;;7.47;83.05
39357;BME280;25077;50.302;18.996;2022-09-21T06:27:48;98664.81;;;7.50;83.39
39357;BME280;25077;50.302;18.996;2022-09-21T06:30:51;98655.25;;;7.53;82.69
39357;BME280;25077;50.302;18.996;2022-09-21T06:33:53;98672.22;;;7.53;83.37
39357;BME280;25077;50.302;18.996;2022-09-21T06:36:56;98663.50;;;7.56;83.24
39357;BME280;25077;50.302;18.996;2022-09-21T06:39:58;98671.69;;;7.60;83.44
39357;BME280;25077;50.302;18.996;2022-09-21T06:43:01;98673.09;;;7.66;83.28
39357;BME280;25077;50.302;18.996;2022-09-21T06:46:04;98677.63;;;7.74;83.29
39357;BME280;25077;50.302;18.996;2022-09-21T06:49:06;98675.84;;;7.78;82.86
39357;BME280;25077;50.302;18.996;2022-09-21T06:52:09;98674.53;;;7.84;82.06
39357;BME280;25077;50.302;18.996;2022-09-21T06:55:11;98678.47;;;7.87;82.60
39357;BME280;25077;50.302;18.996;2022-09-21T06:58:13;98693.22;;;7.90;82.22
39357;BME280;25077;50.302;18.996;2022-09-21T07:01:15;98700.03;;;7.87;83.03
39357;BME280;25077;50.302;18.996;2022-09-21T07:04:17;98691.50;;;7.85;82.32
39357;BME280;25077;50.302;18.996;2022-09-21T07:07:22;98698.81;;;7.84;82.62
39357;BME280;25077;50.302;18.996;2022-09-21T07:10:24;98703.72;;;7.82;82.50
39357;BME280;25077;50.302;18.996;2022-09-21T07:13:27;98707.53;;;7.81;83.04
39357;BME280;25077;50.302;18.996;2022-09-21T07:16:29;98722.28;;;7.84;83.41
39357;BME280;25077;50.302;18.996;2022-09-21T07:19:31;98704.00;;;7.90;83.38
39357;BME280;25077;50.302;18.996;2022-09-21T07:22:35;98702.53;;;7.92;83.50
39357;BME280;25077;50.302;18.996;2022-09-21T07:25:37;98713.53;;;8.08;83.08
39357;BME280;25077;50.302;18.996;2022-09-21T07:28:39;98706.41;;;8.03;83.08
39357;BME280;25077;50.302;18.996;2022-09-21T07:31:42;98715.53;;;8.11;82.29
39357;BME280;25077;50.302;18.996;2022-09-21T07:34:44;98708.56;;;8.10;82.47
39357;BME280;25077;50.302;18.996;2022-09-21T07:37:48;98719.94;;;8.16;82.43
39357;BME280;25077;50.302;18.996;2022-09-21T07:40:50;98716.59;;;8.19;81.89
39357;BME280;25077;50.302;18.996;2022-09-21T07:43:52;98712.44;;;8.21;81.80
39357;BME280;25077;50.302;18.996;2022-09-21T07:46:54;98708.31;;;8.24;82.01
39357;BME280;25077;50.302;18.996;2022-09-21T07:49:56;98733.44;;;8.16;81.91
39357;BME280;25077;50.302;18.996;2022-09-21T07:53:00;98725.28;;;8.24;81.97
39357;BME280;25077;50.302;18.996;2022-09-21T07:56:03;98731.91;;;8.27;82.25
39357;BME280;25077;50.302;18.996;2022-09-21T07:59:06;98727.09;;;8.32;81.91
39357;BME280;25077;50.302;18.996;2022-09-21T08:02:07;98735.78;;;8.38;80.77
39357;BME280;25077;50.302;18.996;2022-09-21T08:05:09;98740.31;;;8.46;80.96
39357;BME280;25077;50.302;18.996;2022-09-21T08:08:12;98733.31;;;8.45;81.09
39357;BME280;25077;50.302;18.996;2022-09-21T08:11:17;98739.53;;;8.46;80.48
39357;BME280;25077;50.302;18.996;2022-09-21T08:14:21;98738.53;;;8.50;80.41
39357;BME280;25077;50.302;18.996;2022-09-21T08:17:23;98744.69;;;8.51;81.00
39357;BME280;25077;50.302;18.996;2022-09-21T08:20:25;98742.25;;;8.46;80.76
39357;BME280;25077;50.302;18.996;2022-09-21T08:23:30;98740.63;;;8.45;81.01
39357;BME280;25077;50.302;18.996;2022-09-21T08:26:32;98743.34;;;8.45;81.67
39357;BME280;25077;50.302;18.996;2022-09-21T08:29:34;98761.44;;;8.44;80.78
39357;BME280;25077;50.302;18.996;2022-09-21T08:32:37;98755.72;;;8.46;81.01
39357;BME280;25077;50.302;18.996;2022-09-21T08:35:39;98757.41;;;8.50;81.72
39357;BME280;25077;50.302;18.996;2022-09-21T08:38:42;98755.97;;;8.53;81.71
39357;BME280;25077;50.302;18.996;2022-09-21T08:41:51;98755.31;;;8.56;80.56
39357;BME280;25077;50.302;18.996;2022-09-21T08:45:00;98754.34;;;8.60;80.95
39357;BME280;25077;50.302;18.996;2022-09-21T08:48:10;98758.53;;;8.70;82.08
39357;BME280;25077;50.302;18.996;2022-09-21T08:51:16;98752.59;;;8.77;81.09
39357;BME280;25077;50.302;18.996;2022-09-21T08:54:31;98750.44;;;8.70;81.65
39357;BME280;25077;50.302;18.996;2022-09-21T08:57:35;98747.88;;;8.74;82.04
39357;BME280;25077;50.302;18.996;2022-09-21T09:00:39;98745.53;;;8.97;81.22
39357;BME280;25077;50.302;18.996;2022-09-21T09:03:52;98750.41;;;9.28;81.18
39357;BME280;25077;50.302;18.996;2022-09-21T09:07:08;98755.22;;;9.47;81.43
39357;BME280;25077;50.302;18.996;2022-09-21T09:10:28;98749.34;;;9.69;79.88
39357;BME280;25077;50.302;18.996;2022-09-21T09:13:50;98746.84;;;9.88;79.52
39357;BME280;25077;50.302;18.996;2022-09-21T09:17:08;98747.59;;;10.13;78.48
39357;BME280;25077;50.302;18.996;2022-09-21T09:20:19;98761.66;;;10.19;77.01
39357;BME280;25077;50.302;18.996;2022-09-21T09:23:25;98755.22;;;10.23;77.45
39357;BME280;25077;50.302;18.996;2022-09-21T09:26:34;98762.56;;;10.23;76.56
39357;BME280;25077;50.302;18.996;2022-09-21T09:29:47;98758.06;;;10.27;76.96
39357;BME280;25077;50.302;18.996;2022-09-21T09:32:57;98758.59;;;10.20;75.47
39357;BME280;25077;50.302;18.996;2022-09-21T09:36:04;98758.59;;;10.20;77.61
39357;BME280;25077;50.302;18.996;2022-09-21T09:39:10;98751.69;;;10.35;76.18
39357;BME280;25077;50.302;18.996;2022-09-21T09:42:35;98748.56;;;10.49;76.22
39357;BME280;25077;50.302;18.996;2022-09-21T09:45:48;98749.47;;;10.53;74.93
39357;BME280;25077;50.302;18.996;2022-09-21T09:49:04;98758.00;;;10.55;74.56
39357;BME280;25077;50.302;18.996;2022-09-21T09:52:12;98757.16;;;10.51;74.58
39357;BME280;25077;50.302;18.996;2022-09-21T09:55:17;98761.53;;;10.56;74.65
39357;BME280;25077;50.302;18.996;2022-09-21T09:58:27;98761.47;;;10.68;74.89
39357;BME280;25077;50.302;18.996;2022-09-21T10:01:38;98761.50;;;10.84;74.49
39357;BME280;25077;50.302;18.996;2022-09-21T10:04:53;98764.84;;;11.09;73.84
39357;BME280;25077;50.302;18.996;2022-09-21T10:08:00;98753.47;;;11.19;74.13
39357;BME280;25077;50.302;18.996;2022-09-21T10:11:02;98755.38;;;11.34;73.16
39357;BME280;25077;50.302;18.996;2022-09-21T10:14:16;98745.66;;;11.49;72.92
39357;BME280;25077;50.302;18.996;2022-09-21T10:17:20;98742.06;;;11.61;71.52
39357;BME280;25077;50.302;18.996;2022-09-21T10:20:22;98742.88;;;11.61;71.57
39357;BME280;25077;50.302;18.996;2022-09-21T10:23:25;98739.75;;;11.78;73.04
39357;BME280;25077;50.302;18.996;2022-09-21T10:26:30;98733.88;;;12.12;72.13
39357;BME280;25077;50.302;18.996;2022-09-21T10:29:43;98741.28;;;12.34;70.02
39357;BME280;25077;50.302;18.996;2022-09-21T10:32:53;98729.50;;;12.46;69.77
39357;BME280;25077;50.302;18.996;2022-09-21T10:35:56;98740.28;;;12.42;69.40
39357;BME280;25077;50.302;18.996;2022-09-21T10:39:20;98733.84;;;12.31;68.93
39357;BME280;25077;50.302;18.996;2022-09-21T10:42:22;98736.56;;;12.31;69.28
39357;BME280;25077;50.302;18.996;2022-09-21T10:45:27;98731.13;;;12.31;67.77
39357;BME280;25077;50.302;18.996;2022-09-21T10:48:29;98726.84;;;12.49;68.16
39357;BME280;25077;50.302;18.996;2022-09-21T10:51:31;98741.13;;;12.66;67.97
39357;BME280;25077;50.302;18.996;2022-09-21T10:54:34;98731.47;;;12.68;65.42
39357;BME280;25077;50.302;18.996;2022-09-21T10:57:40;98734.97;;;12.69;66.53
39357;BME280;25077;50.302;18.996;2022-09-21T11:00:46;98739.97;;;12.86;67.83
39357;BME280;25077;50.302;18.996;2022-09-21T11:03:54;98730.31;;;13.11;66.95
39357;BME280;25077;50.302;18.996;2022-09-21T11:07:03;98734.81;;;13.27;66.03
39357;BME280;25077;50.302;18.996;2022-09-21T11:10:14;98721.78;;;13.13;65.90
39357;BME280;25077;50.302;18.996;2022-09-21T11:13:24;98723.56;;;13.28;65.98
39357;BME280;25077;50.302;18.996;2022-09-21T11:16:34;98722.91;;;13.35;65.45
39357;BME280;25077;50.302;18.996;2022-09-21T11:19:40;98732.09;;;13.80;66.00
39357;BME280;25077;50.302;18.996;2022-09-21T11:22:53;98729.63;;;13.98;65.42
39357;BME280;25077;50.302;18.996;2022-09-21T11:26:02;98729.34;;;14.06;63.44
39357;BME280;25077;50.302;18.996;2022-09-21T11:29:16;98733.38;;;13.89;61.73
39357;BME280;25077;50.302;18.996;2022-09-21T11:32:31;98720.28;;;13.68;61.75
39357;BME280;25077;50.302;18.996;2022-09-21T11:35:45;98724.72;;;13.54;63.10
39357;BME280;25077;50.302;18.996;2022-09-21T11:38:55;98720.06;;;13.54;63.47
39357;BME280;25077;50.302;18.996;2022-09-21T11:42:08;98725.56;;;13.58;62.97
39357;BME280;25077;50.302;18.996;2022-09-21T11:45:29;98717.88;;;13.63;63.90
39357;BME280;25077;50.302;18.996;2022-09-21T11:48:51;98712.69;;;13.55;60.87
39357;BME280;25077;50.302;18.996;2022-09-21T11:52:05;98717.66;;;13.49;62.36
39357;BME280;25077;50.302;18.996;2022-09-21T11:55:26;98718.94;;;13.32;62.56
39357;BME280;25077;50.302;18.996;2022-09-21T11:58:53;98714.78;;;13.12;63.47
39357;BME280;25077;50.302;18.996;2022-09-21T12:02:31;98713.13;;;13.07;64.26
39357;BME280;25077;50.302;18.996;2022-09-21T12:06:05;98708.31;;;12.97;63.04
39357;BME280;25077;50.302;18.996;2022-09-21T12:09:27;98714.03;;;12.92;63.04
39357;BME280;25077;50.302;18.996;2022-09-21T12:12:38;98713.34;;;12.76;63.51
39357;BME280;25077;50.302;18.996;2022-09-21T12:15:48;98716.53;;;12.78;63.08
39357;BME280;25077;50.302;18.996;2022-09-21T12:18:58;98708.38;;;12.78;64.16
39357;BME280;25077;50.302;18.996;2022-09-21T12:22:08;98696.81;;;13.07;65.34
39357;BME280;25077;50.302;18.996;2022-09-21T12:25:14;98703.66;;;14.04;65.21
39357;BME280;25077;50.302;18.996;2022-09-21T12:28:20;98700.03;;;15.08;64.75
39357;BME280;25077;50.302;18.996;2022-09-21T12:31:29;98684.34;;;16.18;60.68
39357;BME280;25077;50.302;18.996;2022-09-21T12:34:37;98675.44;;;16.46;58.24
39357;BME280;25077;50.302;18.996;2022-09-21T12:37:46;98680.56;;;16.80;58.00
39357;BME280;25077;50.302;18.996;2022-09-21T12:40:53;98685.66;;;17.28;57.07
39357;BME280;25077;50.302;18.996;2022-09-21T12:44:04;98687.53;;;17.67;55.86
39357;BME280;25077;50.302;18.996;2022-09-21T12:47:12;98688.38;;;17.31;51.67
39357;BME280;25077;50.302;18.996;2022-09-21T12:50:19;98685.25;;;17.36;55.32
39357;BME280;25077;50.302;18.996;2022-09-21T12:53:25;98674.56;;;17.92;56.13
39357;BME280;25077;50.302;18.996;2022-09-21T12:56:33;98674.91;;;18.01;50.92
39357;BME280;25077;50.302;18.996;2022-09-21T12:59:44;98677.31;;;17.74;53.35
39357;BME280;25077;50.302;18.996;2022-09-21T13:02:54;98668.69;;;17.94;52.87
39357;BME280;25077;50.302;18.996;2022-09-21T13:09:29;98664.59;;;18.30;51.77
39357;BME280;25077;50.302;18.996;2022-09-21T13:12:39;98668.28;;;18.65;52.24
39357;BME280;25077;50.302;18.996;2022-09-21T13:15:45;98666.31;;;18.69;51.76
39357;BME280;25077;50.302;18.996;2022-09-21T13:18:54;98666.91;;;18.35;47.40
39357;BME280;25077;50.302;18.996;2022-09-21T13:22:11;98662.09;;;17.62;49.83
39357;BME280;25077;50.302;18.996;2022-09-21T13:25:22;98658.69;;;17.26;51.02
39357;BME280;25077;50.302;18.996;2022-09-21T13:28:42;98650.06;;;16.92;50.52
39357;BME280;25077;50.302;18.996;2022-09-21T13:32:01;98643.81;;;16.88;49.22
39357;BME280;25077;50.302;18.996;2022-09-21T13:39:03;98645.72;;;16.45;49.55
39357;BME280;25077;50.302;18.996;2022-09-21T13:42:46;98645.19;;;15.96;49.51
39357;BME280;25077;50.302;18.996;2022-09-21T13:45:54;98640.19;;;16.16;52.46
39357;BME280;25077;50.302;18.996;2022-09-21T13:48:56;98646.88;;;16.26;52.32
39357;BME280;25077;50.302;18.996;2022-09-21T13:52:01;98644.78;;;15.91;52.22
39357;BME280;25077;50.302;18.996;2022-09-21T13:55:14;98651.63;;;15.49;52.82
39357;BME280;25077;50.302;18.996;2022-09-21T13:58:24;98654.72;;;14.96;53.41
39357;BME280;25077;50.302;18.996;2022-09-21T14:01:31;98651.22;;;14.51;53.92
39357;BME280;25077;50.302;18.996;2022-09-21T14:04:35;98646.91;;;14.09;53.91
39357;BME280;25077;50.302;18.996;2022-09-21T14:07:39;98645.63;;;13.70;54.00
39357;BME280;25077;50.302;18.996;2022-09-21T14:10:49;98651.06;;;13.70;55.46
39357;BME280;25077;50.302;18.996;2022-09-21T14:14:06;98646.09;;;14.05;55.96
39357;BME280;25077;50.302;18.996;2022-09-21T14:17:34;98646.38;;;14.74;54.41
39357;BME280;25077;50.302;18.996;2022-09-21T14:20:37;98638.94;;;15.99;56.92
39357;BME280;25077;50.302;18.996;2022-09-21T14:23:39;98635.22;;;17.11;56.31
39357;BME280;25077;50.302;18.996;2022-09-21T14:26:49;98632.50;;;18.27;53.36
39357;BME280;25077;50.302;18.996;2022-09-21T14:29:56;98628.44;;;19.02;53.61
39357;BME280;25077;50.302;18.996;2022-09-21T14:33:09;98629.06;;;19.58;52.77
39357;BME280;25077;50.302;18.996;2022-09-21T14:36:17;98622.31;;;19.96;50.78
39357;BME280;25077;50.302;18.996;2022-09-21T14:39:23;98628.97;;;19.27;49.83
39357;BME280;25077;50.302;18.996;2022-09-21T14:42:27;98621.66;;;18.06;49.82
39357;BME280;25077;50.302;18.996;2022-09-21T14:45:55;98629.25;;;17.66;47.58
39357;BME280;25077;50.302;18.996;2022-09-21T14:49:10;98626.53;;;17.52;50.15
39357;BME280;25077;50.302;18.996;2022-09-21T14:52:23;98632.75;;;17.70;48.06
39357;BME280;25077;50.302;18.996;2022-09-21T14:55:34;98635.06;;;17.75;48.92
39357;BME280;25077;50.302;18.996;2022-09-21T14:58:52;98636.88;;;18.18;47.27
39357;BME280;25077;50.302;18.996;2022-09-21T15:02:01;98635.56;;;18.40;48.55
39357;BME280;25077;50.302;18.996;2022-09-21T15:05:17;98647.19;;;18.58;45.60
39357;BME280;25077;50.302;18.996;2022-09-21T15:08:37;98647.31;;;18.40;45.04
39357;BME280;25077;50.302;18.996;2022-09-21T15:12:09;98635.03;;;17.93;45.71
39357;BME280;25077;50.302;18.996;2022-09-21T15:15:28;98649.94;;;17.78;44.75
39357;BME280;25077;50.302;18.996;2022-09-21T15:18:44;98633.22;;;17.44;45.26
39357;BME280;25077;50.302;18.996;2022-09-21T15:22:13;98648.84;;;17.50;46.24
39357;BME280;25077;50.302;18.996;2022-09-21T15:25:16;98653.22;;;16.98;47.16
39357;BME280;25077;50.302;18.996;2022-09-21T15:28:19;98651.97;;;16.42;48.21
39357;BME280;25077;50.302;18.996;2022-09-21T15:31:21;98659.13;;;15.66;48.29
39357;BME280;25077;50.302;18.996;2022-09-21T15:34:24;98671.91;;;15.00;50.32
39357;BME280;25077;50.302;18.996;2022-09-21T15:37:28;98677.44;;;14.26;52.21
39357;BME280;25077;50.302;18.996;2022-09-21T15:40:32;98666.53;;;13.62;54.07
39357;BME280;25077;50.302;18.996;2022-09-21T15:43:39;98676.63;;;13.08;56.50
39357;BME280;25077;50.302;18.996;2022-09-21T15:46:44;98671.84;;;12.56;56.31
39357;BME280;25077;50.302;18.996;2022-09-21T15:49:51;98678.13;;;12.18;58.31
39357;BME280;25077;50.302;18.996;2022-09-21T15:52:58;98675.69;;;11.74;60.43
39357;BME280;25077;50.302;18.996;2022-09-21T15:56:04;98683.91;;;11.42;58.50
39357;BME280;25077;50.302;18.996;2022-09-21T15:59:11;98679.81;;;11.17;61.26
39357;BME280;25077;50.302;18.996;2022-09-21T16:02:21;98681.34;;;10.98;61.89
39357;BME280;25077;50.302;18.996;2022-09-21T16:05:26;98685.63;;;10.84;62.31
39357;BME280;25077;50.302;18.996;2022-09-21T16:08:31;98681.06;;;10.72;61.76
39357;BME280;25077;50.302;18.996;2022-09-21T16:11:39;98682.03;;;10.64;62.71
39357;BME280;25077;50.302;18.996;2022-09-21T16:14:48;98683.78;;;10.56;64.73
39357;BME280;25077;50.302;18.996;2022-09-21T16:18:01;98683.69;;;10.53;64.37
39357;BME280;25077;50.302;18.996;2022-09-21T16:21:15;98688.31;;;10.52;65.07
39357;BME280;25077;50.302;18.996;2022-09-21T16:24:21;98691.81;;;10.53;64.05
39357;BME280;25077;50.302;18.996;2022-09-21T16:27:26;98691.28;;;10.47;63.04
39357;BME280;25077;50.302;18.996;2022-09-21T16:30:44;98690.91;;;10.48;65.34
39357;BME280;25077;50.302;18.996;2022-09-21T16:33:57;98689.97;;;10.41;65.10